createdAt,value
2019-03-01T00:00:15.691Z,8.74
2019-03-01T00:01:25.809Z,8.75
2019-03-01T00:02:35.922Z,8.74
2019-03-01T00:03:46.026Z,8.7
2019-03-01T00:04:56.154Z,8.68
2019-03-01T00:06:06.269Z,8.68
2019-03-01T00:07:16.392Z,8.66
2019-03-01T00:08:26.718Z,8.66
2019-03-01T00:09:36.836Z,8.61
2019-03-01T00:10:46.953Z,8.64
2019-03-01T00:11:57.066Z,8.6
2019-03-01T00:13:07.186Z,8.6
2019-03-01T00:14:17.304Z,8.61
2019-03-01T00:15:27.439Z,8.63
2019-03-01T00:16:37.810Z,8.58
2019-03-01T00:17:47.938Z,8.6
2019-03-01T00:18:58.072Z,8.68
2019-03-01T00:20:07.933Z,8.6
2019-03-01T00:21:18.056Z,8.66
2019-03-01T00:22:28.183Z,8.55
2019-03-01T00:23:38.298Z,8.57
2019-03-01T00:24:48.414Z,8.49
2019-03-01T00:25:58.535Z,8.48
2019-03-01T00:27:08.634Z,8.55
2019-03-01T00:28:18.750Z,8.49
2019-03-01T00:29:28.870Z,8.53
2019-03-01T00:30:38.724Z,8.52
2019-03-01T00:31:48.846Z,8.53
2019-03-01T00:32:58.986Z,8.58
2019-03-01T00:34:10.106Z,8.61
2019-03-01T00:35:20.222Z,8.58
2019-03-01T00:36:30.341Z,8.58
2019-03-01T00:37:40.200Z,8.52
2019-03-01T00:38:50.330Z,8.52
2019-03-01T00:40:00.459Z,8.45
2019-03-01T00:41:10.644Z,8.42
2019-03-01T00:42:20.751Z,8.37
2019-03-01T00:43:30.868Z,8.42
2019-03-01T00:44:40.987Z,8.3
2019-03-01T00:45:53.155Z,8.35
2019-03-01T00:47:03.261Z,8.27
2019-03-01T00:48:13.362Z,8.3
2019-03-01T00:49:23.205Z,8.32
2019-03-01T00:50:33.059Z,8.3
2019-03-01T00:51:43.167Z,8.16
2019-03-01T00:52:53.267Z,8.15
2019-03-01T00:54:03.047Z,8.15
2019-03-01T00:55:13.165Z,8.09
2019-03-01T00:56:23.288Z,7.97
2019-03-01T00:57:33.420Z,8.05
2019-03-01T00:58:43.513Z,8.07
2019-03-01T00:59:53.644Z,8.06
2019-03-01T01:01:03.818Z,8.07
2019-03-01T01:02:13.948Z,8.07
2019-03-01T01:03:24.055Z,7.99
2019-03-01T01:04:34.154Z,8.03
2019-03-01T01:05:44.267Z,7.98
2019-03-01T01:06:54.368Z,7.85
2019-03-01T01:08:04.507Z,7.85
2019-03-01T01:09:14.615Z,7.79
2019-03-01T01:10:24.722Z,7.76
2019-03-01T01:11:34.834Z,7.7
2019-03-01T01:12:44.953Z,7.77
2019-03-01T01:13:55.063Z,7.8
2019-03-01T01:15:05.251Z,7.77
2019-03-01T01:16:15.382Z,7.8
2019-03-01T01:17:25.533Z,7.76
2019-03-01T01:18:35.645Z,7.79
2019-03-01T01:19:45.751Z,7.74
2019-03-01T01:20:55.857Z,7.74
2019-03-01T01:22:05.965Z,7.73
2019-03-01T01:23:16.072Z,7.76
2019-03-01T01:24:26.203Z,7.73
2019-03-01T01:25:36.317Z,7.76
2019-03-01T01:26:46.420Z,7.79
2019-03-01T01:27:56.525Z,7.72
2019-03-01T01:29:06.632Z,7.62
2019-03-01T01:30:16.768Z,7.73
2019-03-01T01:31:26.891Z,7.7
2019-03-01T01:32:36.993Z,7.64
2019-03-01T01:33:47.094Z,7.64
2019-03-01T01:34:57.226Z,7.52
2019-03-01T01:36:07.367Z,7.55
2019-03-01T01:37:17.264Z,7.52
2019-03-01T01:38:27.374Z,7.51
2019-03-01T01:39:37.475Z,7.34
2019-03-01T01:40:47.607Z,7.31
2019-03-01T01:41:57.456Z,7.34
2019-03-01T01:43:07.200Z,7.37
2019-03-01T01:44:17.303Z,7.31
2019-03-01T01:45:27.421Z,7.41
2019-03-01T01:46:37.551Z,7.48
2019-03-01T01:47:47.679Z,7.44
2019-03-01T01:48:57.789Z,7.34
2019-03-01T01:50:07.934Z,7.29
2019-03-01T01:51:18.064Z,7.29
2019-03-01T01:52:28.188Z,7.24
2019-03-01T01:53:38.314Z,7.29
2019-03-01T01:54:48.438Z,7.26
2019-03-01T01:55:58.548Z,7.21
2019-03-01T01:57:08.659Z,7.28
2019-03-01T01:58:18.514Z,7.21
2019-03-01T01:59:28.630Z,7.24
2019-03-01T02:00:38.741Z,7.21
2019-03-01T02:01:48.870Z,7.24
2019-03-01T02:02:58.987Z,7.22
2019-03-01T02:04:09.093Z,7.15
2019-03-01T02:05:19.208Z,7.03
2019-03-01T02:06:29.326Z,7.13
2019-03-01T02:07:39.460Z,7.06
2019-03-01T02:08:49.586Z,7.15
2019-03-01T02:09:59.704Z,7.06
2019-03-01T02:11:09.825Z,7.18
2019-03-01T02:12:19.701Z,7.2
2019-03-01T02:13:29.864Z,7.2
2019-03-01T02:14:39.975Z,7.2
2019-03-01T02:15:50.099Z,7.26
2019-03-01T02:17:00.212Z,7.15
2019-03-01T02:18:10.334Z,7.22
2019-03-01T02:19:20.429Z,7.2
2019-03-01T02:20:30.595Z,7.17
2019-03-01T02:21:40.707Z,7.14
2019-03-01T02:22:50.801Z,7.18
2019-03-01T02:24:00.935Z,7.13
2019-03-01T02:25:11.053Z,7.05
2019-03-01T02:26:21.168Z,7.02
2019-03-01T02:27:31.303Z,6.93
2019-03-01T02:28:41.411Z,6.93
2019-03-01T02:29:51.528Z,6.9
2019-03-01T02:31:01.283Z,6.97
2019-03-01T02:32:11.401Z,6.92
2019-03-01T02:33:21.514Z,6.87
2019-03-01T02:34:31.707Z,6.9
2019-03-01T02:35:41.821Z,6.93
2019-03-01T02:36:51.674Z,6.9
2019-03-01T02:38:01.807Z,6.81
2019-03-01T02:39:11.941Z,6.87
2019-03-01T02:40:22.051Z,6.85
2019-03-01T02:41:32.165Z,6.82
2019-03-01T02:42:42.337Z,6.82
2019-03-01T02:43:52.491Z,6.82
2019-03-01T02:45:02.749Z,6.9
2019-03-01T02:46:12.913Z,6.85
2019-03-01T02:47:23.031Z,6.95
2019-03-01T02:48:32.929Z,6.9
2019-03-01T02:49:43.043Z,6.95
2019-03-01T02:50:53.161Z,6.93
2019-03-01T02:52:03.300Z,6.93
2019-03-01T02:53:13.151Z,6.93
2019-03-01T02:54:22.930Z,6.93
2019-03-01T02:55:33.275Z,7.06
2019-03-01T02:56:43.127Z,7
2019-03-01T02:57:53.243Z,7.02
2019-03-01T02:59:03.365Z,6.97
2019-03-01T03:00:13.217Z,7
2019-03-01T03:01:23.334Z,6.97
2019-03-01T03:02:33.441Z,7.03
2019-03-01T03:03:43.559Z,6.99
2019-03-01T03:04:53.672Z,7.02
2019-03-01T03:06:03.794Z,6.97
2019-03-01T03:07:13.939Z,7.02
2019-03-01T03:08:24.421Z,7.11
2019-03-01T03:09:34.807Z,7.06
2019-03-01T03:10:44.923Z,7
2019-03-01T03:11:55.043Z,7.15
2019-03-01T03:13:05.187Z,7.08
2019-03-01T03:14:15.537Z,7.11
2019-03-01T03:15:25.634Z,6.97
2019-03-01T03:16:35.500Z,6.97
2019-03-01T03:17:45.642Z,7.06
2019-03-01T03:18:55.758Z,6.97
2019-03-01T03:20:05.874Z,7
2019-03-01T03:21:16.012Z,7.02
2019-03-01T03:22:25.885Z,7.03
2019-03-01T03:23:35.994Z,7
2019-03-01T03:24:46.128Z,7
2019-03-01T03:25:56.444Z,7.17
2019-03-01T03:27:06.573Z,7.17
2019-03-01T03:28:16.749Z,7.13
2019-03-01T03:29:26.945Z,7.11
2019-03-01T03:30:37.077Z,7.06
2019-03-01T03:31:47.265Z,7.03
2019-03-01T03:32:57.420Z,7.1
2019-03-01T03:34:07.378Z,7.03
2019-03-01T03:35:17.690Z,7.06
2019-03-01T03:36:27.789Z,7
2019-03-01T03:37:37.708Z,7.03
2019-03-01T03:38:47.891Z,7.11
2019-03-01T03:39:57.998Z,7.17
2019-03-01T03:41:08.184Z,7.15
2019-03-01T03:42:18.291Z,7.05
2019-03-01T03:43:28.400Z,7.08
2019-03-01T03:44:38.511Z,7.13
2019-03-01T03:45:48.618Z,7.15
2019-03-01T03:46:58.796Z,7.15
2019-03-01T03:48:09.033Z,7
2019-03-01T03:49:19.199Z,7.05
2019-03-01T03:50:29.348Z,7.02
2019-03-01T03:51:39.458Z,6.97
2019-03-01T03:52:49.587Z,6.97
2019-03-01T03:53:59.735Z,7.02
2019-03-01T03:55:09.848Z,7.06
2019-03-01T03:56:19.955Z,6.97
2019-03-01T03:57:30.074Z,6.87
2019-03-01T03:58:40.209Z,6.89
2019-03-01T03:59:50.355Z,6.87
2019-03-01T04:01:00.487Z,6.81
2019-03-01T04:02:10.609Z,6.92
2019-03-01T04:03:20.708Z,6.9
2019-03-01T04:04:30.825Z,6.95
2019-03-01T04:05:40.953Z,6.89
2019-03-01T04:06:51.078Z,6.96
2019-03-01T04:08:01.196Z,6.89
2019-03-01T04:09:11.311Z,6.85
2019-03-01T04:10:21.463Z,6.82
2019-03-01T04:11:31.636Z,6.81
2019-03-01T04:12:41.756Z,6.71
2019-03-01T04:13:51.951Z,6.74
2019-03-01T04:15:02.070Z,6.71
2019-03-01T04:16:12.183Z,6.72
2019-03-01T04:17:22.031Z,6.63
2019-03-01T04:18:32.143Z,6.67
2019-03-01T04:19:42.250Z,6.62
2019-03-01T04:20:52.405Z,6.59
2019-03-01T04:22:02.550Z,6.62
2019-03-01T04:23:12.654Z,6.72
2019-03-01T04:24:22.455Z,6.75
2019-03-01T04:25:32.595Z,6.72
2019-03-01T04:26:42.736Z,6.78
2019-03-01T04:27:53.482Z,6.85
2019-03-01T04:29:03.817Z,6.82
2019-03-01T04:30:14.016Z,6.93
2019-03-01T04:31:24.127Z,6.97
2019-03-01T04:32:34.283Z,6.96
2019-03-01T04:33:44.139Z,6.97
2019-03-01T04:34:54.301Z,7.02
2019-03-01T04:36:04.421Z,6.92
2019-03-01T04:37:14.564Z,7
2019-03-01T04:38:24.428Z,6.9
2019-03-01T04:39:35.538Z,6.95
2019-03-01T04:40:45.662Z,6.9
2019-03-01T04:41:55.771Z,6.93
2019-03-01T04:43:05.874Z,6.89
2019-03-01T04:44:15.971Z,6.95
2019-03-01T04:45:26.079Z,6.82
2019-03-01T04:46:36.181Z,6.82
2019-03-01T04:47:46.290Z,6.85
2019-03-01T04:48:56.398Z,6.78
2019-03-01T04:50:06.502Z,6.78
2019-03-01T04:51:16.643Z,6.74
2019-03-01T04:52:26.748Z,6.75
2019-03-01T04:53:36.641Z,6.79
2019-03-01T04:54:46.760Z,6.85
2019-03-01T04:55:56.882Z,6.87
2019-03-01T04:57:06.775Z,6.87
2019-03-01T04:58:16.909Z,6.89
2019-03-01T04:59:27.137Z,6.97
2019-03-01T05:00:37.262Z,6.9
2019-03-01T05:01:47.144Z,6.97
2019-03-01T05:02:57.313Z,7.03
2019-03-01T05:04:07.455Z,6.92
2019-03-01T05:05:17.647Z,6.97
2019-03-01T05:06:27.762Z,7.03
2019-03-01T05:07:37.928Z,7
2019-03-01T05:08:48.031Z,6.97
2019-03-01T05:09:58.246Z,6.93
2019-03-01T05:11:08.355Z,6.93
2019-03-01T05:12:18.477Z,6.95
2019-03-01T05:13:28.363Z,6.93
2019-03-01T05:14:38.472Z,6.92
2019-03-01T05:15:48.583Z,6.93
2019-03-01T05:16:58.701Z,6.9
2019-03-01T05:18:08.847Z,6.92
2019-03-01T05:19:18.990Z,6.92
2019-03-01T05:20:30.426Z,6.92
2019-03-01T05:21:40.605Z,6.89
2019-03-01T05:22:50.476Z,6.93
2019-03-01T05:24:00.634Z,6.84
2019-03-01T05:25:10.767Z,6.82
2019-03-01T05:26:20.901Z,6.79
2019-03-01T05:27:31.015Z,6.77
2019-03-01T05:28:40.896Z,6.62
2019-03-01T05:29:51.059Z,6.59
2019-03-01T05:31:01.177Z,6.66
2019-03-01T05:32:11.283Z,6.6
2019-03-01T05:33:21.418Z,6.6
2019-03-01T05:34:31.544Z,6.6
2019-03-01T05:35:41.682Z,6.67
2019-03-01T05:36:51.851Z,6.77
2019-03-01T05:38:01.992Z,6.78
2019-03-01T05:39:12.123Z,6.82
2019-03-01T05:40:22.233Z,6.81
2019-03-01T05:41:32.334Z,6.93
2019-03-01T05:42:42.456Z,6.95
2019-03-01T05:43:52.643Z,6.96
2019-03-01T05:45:02.868Z,6.92
2019-03-01T05:46:12.983Z,6.9
2019-03-01T05:47:23.126Z,6.95
2019-03-01T05:48:33.258Z,6.93
2019-03-01T05:49:43.361Z,6.92
2019-03-01T05:50:53.492Z,6.93
2019-03-01T05:52:03.606Z,6.93
2019-03-01T05:53:13.711Z,6.97
2019-03-01T05:54:23.825Z,6.93
2019-03-01T05:55:33.947Z,6.97
2019-03-01T05:56:44.045Z,7.08
2019-03-01T05:57:54.155Z,7.06
2019-03-01T05:59:04.277Z,7.15
2019-03-01T06:00:14.997Z,7.13
2019-03-01T06:01:25.116Z,7.2
2019-03-01T06:02:35.226Z,7.17
2019-03-01T06:03:45.340Z,7.22
2019-03-01T06:04:56.460Z,7.22
2019-03-01T06:06:06.592Z,7.2
2019-03-01T06:07:16.457Z,7.33
2019-03-01T06:08:26.554Z,7.29
2019-03-01T06:09:36.654Z,7.34
2019-03-01T06:10:46.779Z,7.4
2019-03-01T06:11:58.566Z,7.43
2019-03-01T06:13:08.820Z,7.33
2019-03-01T06:14:18.911Z,7.44
2019-03-01T06:15:29.031Z,7.41
2019-03-01T06:16:40.166Z,7.4
2019-03-01T06:17:50.375Z,7.36
2019-03-01T06:19:00.492Z,7.31
2019-03-01T06:20:10.605Z,7.37
2019-03-01T06:21:20.708Z,7.48
2019-03-01T06:22:30.804Z,7.43
2019-03-01T06:23:40.920Z,7.44
2019-03-01T06:24:51.027Z,7.48
2019-03-01T06:26:01.155Z,7.49
2019-03-01T06:27:11.282Z,7.36
2019-03-01T06:28:21.834Z,7.36
2019-03-01T06:29:31.941Z,7.37
2019-03-01T06:30:51.417Z,7.37
2019-03-01T06:32:01.715Z,7.4
2019-03-01T06:33:11.816Z,7.36
2019-03-01T06:34:21.946Z,7.24
2019-03-01T06:35:32.045Z,7.31
2019-03-01T06:36:41.806Z,7.33
2019-03-01T06:37:51.921Z,7.28
2019-03-01T06:39:02.079Z,7.33
2019-03-01T06:40:12.202Z,7.26
2019-03-01T06:41:22.307Z,7.24
2019-03-01T06:42:32.416Z,7.29
2019-03-01T06:43:42.535Z,7.22
2019-03-01T06:44:52.647Z,7.28
2019-03-01T06:46:02.761Z,7.24
2019-03-01T06:47:12.874Z,7.26
2019-03-01T06:48:22.984Z,7.22
2019-03-01T06:49:33.115Z,7.31
2019-03-01T06:50:43.210Z,7.24
2019-03-01T06:51:53.312Z,7.29
2019-03-01T06:53:03.433Z,7.24
2019-03-01T06:54:13.551Z,7.22
2019-03-01T06:55:23.447Z,7.2
2019-03-01T06:56:33.543Z,7.24
2019-03-01T06:57:43.657Z,7.22
2019-03-01T06:58:53.758Z,7.31
2019-03-01T07:00:03.878Z,7.21
2019-03-01T07:01:14.010Z,7.24
2019-03-01T07:02:24.120Z,7.29
2019-03-01T07:03:34.239Z,7.39
2019-03-01T07:04:44.354Z,7.37
2019-03-01T07:06:02.913Z,7.29
2019-03-01T07:07:13.227Z,7.37
2019-03-01T07:08:23.073Z,7.39
2019-03-01T07:09:32.946Z,7.48
2019-03-01T07:10:43.068Z,7.41
2019-03-01T07:11:53.242Z,7.43
2019-03-01T07:13:03.374Z,7.59
2019-03-01T07:14:13.495Z,7.61
2019-03-01T07:15:23.616Z,7.55
2019-03-01T07:16:33.724Z,7.56
2019-03-01T07:17:43.849Z,7.56
2019-03-01T07:18:53.952Z,7.56
2019-03-01T07:20:03.808Z,7.55
2019-03-01T07:21:14.136Z,7.56
2019-03-01T07:22:24.259Z,7.61
2019-03-01T07:23:41.547Z,7.61
2019-03-01T07:24:51.768Z,7.62
2019-03-01T07:26:01.885Z,7.69
2019-03-01T07:27:12.413Z,7.62
2019-03-01T07:28:22.588Z,7.64
2019-03-01T07:29:32.713Z,7.64
2019-03-01T07:30:42.903Z,7.69
2019-03-01T07:31:53.067Z,7.64
2019-03-01T07:33:03.183Z,7.64
2019-03-01T07:34:13.328Z,7.59
2019-03-01T07:35:23.454Z,7.67
2019-03-01T07:36:33.565Z,7.62
2019-03-01T07:37:43.674Z,7.69
2019-03-01T07:38:53.806Z,7.76
2019-03-01T07:40:03.714Z,7.61
2019-03-01T07:41:13.621Z,7.72
2019-03-01T07:42:23.742Z,7.67
2019-03-01T07:43:33.845Z,7.77
2019-03-01T07:44:43.955Z,7.67
2019-03-01T07:45:54.067Z,7.76
2019-03-01T07:47:04.575Z,7.66
2019-03-01T07:48:14.913Z,7.72
2019-03-01T07:49:25.042Z,7.76
2019-03-01T07:50:35.181Z,7.66
2019-03-01T07:51:45.292Z,7.7
2019-03-01T07:52:55.424Z,7.77
2019-03-01T07:54:13.200Z,7.79
2019-03-01T07:55:32.791Z,7.74
2019-03-01T07:56:44.884Z,7.74
2019-03-01T07:57:55.585Z,7.8
2019-03-01T07:59:06.018Z,7.8
2019-03-01T08:00:19.638Z,7.82
2019-03-01T08:01:32.254Z,7.82
2019-03-01T08:02:45.609Z,7.7
2019-03-01T08:03:58.111Z,7.82
2019-03-01T08:05:09.800Z,7.77
2019-03-01T08:06:21.838Z,7.85
2019-03-01T08:07:32.040Z,7.82
2019-03-01T08:08:44.636Z,7.79
2019-03-01T08:09:56.672Z,7.87
2019-03-01T08:11:07.586Z,7.84
2019-03-01T08:12:17.795Z,7.84
2019-03-01T08:13:29.356Z,7.76
2019-03-01T08:14:39.481Z,7.82
2019-03-01T08:15:50.789Z,7.8
2019-03-01T08:17:01.701Z,7.76
2019-03-01T08:18:13.603Z,7.74
2019-03-01T08:19:28.227Z,7.69
2019-03-01T08:20:38.843Z,7.79
2019-03-01T08:21:52.341Z,7.77
2019-03-01T08:23:04.834Z,7.84
2019-03-01T08:24:16.680Z,7.74
2019-03-01T08:25:31.048Z,7.73
2019-03-01T08:26:41.163Z,7.8
2019-03-01T08:27:53.369Z,7.85
2019-03-01T08:29:04.715Z,7.79
2019-03-01T08:30:16.070Z,7.88
2019-03-01T08:31:26.825Z,7.84
2019-03-01T08:32:36.949Z,7.82
2019-03-01T08:33:48.499Z,7.85
2019-03-01T08:34:59.597Z,7.87
2019-03-01T08:36:12.099Z,7.84
2019-03-01T08:37:22.569Z,8.03
2019-03-01T08:38:35.929Z,8.05
2019-03-01T08:39:46.066Z,8.03
2019-03-01T08:40:59.372Z,8.02
2019-03-01T08:42:09.486Z,8.15
2019-03-01T08:43:19.598Z,8.21
2019-03-01T08:44:29.709Z,8.17
2019-03-01T08:45:39.586Z,8.28
2019-03-01T08:46:51.226Z,8.28
2019-03-01T08:48:04.484Z,8.37
2019-03-01T08:49:16.163Z,8.32
2019-03-01T08:50:26.289Z,8.37
2019-03-01T08:51:36.401Z,8.45
2019-03-01T08:52:46.516Z,8.53
2019-03-01T08:53:56.728Z,8.49
2019-03-01T08:55:09.287Z,8.53
2019-03-01T08:56:28.661Z,8.64
2019-03-01T08:57:48.819Z,8.53
2019-03-01T08:58:59.238Z,8.57
2019-03-01T09:00:09.347Z,8.49
2019-03-01T09:01:20.440Z,8.61
2019-03-01T09:02:29.923Z,8.61
2019-03-01T09:03:41.558Z,8.6
2019-03-01T09:04:55.930Z,8.55
2019-03-01T09:06:05.785Z,8.63
2019-03-01T09:07:15.912Z,8.55
2019-03-01T09:08:26.492Z,8.55
2019-03-01T09:09:36.740Z,8.6
2019-03-01T09:10:46.857Z,8.53
2019-03-01T09:11:57.013Z,8.5
2019-03-01T09:13:07.123Z,8.55
2019-03-01T09:14:17.250Z,8.55
2019-03-01T09:15:32.443Z,8.53
2019-03-01T09:16:45.986Z,8.55
2019-03-01T09:17:56.095Z,8.64
2019-03-01T09:19:06.210Z,8.53
2019-03-01T09:20:16.327Z,8.6
2019-03-01T09:21:26.968Z,8.64
2019-03-01T09:22:38.636Z,8.71
2019-03-01T09:23:54.941Z,8.66
2019-03-01T09:25:10.249Z,8.8
2019-03-01T09:26:23.037Z,8.68
2019-03-01T09:27:35.823Z,8.67
2019-03-01T09:28:45.972Z,8.77
2019-03-01T09:30:03.452Z,8.7
2019-03-01T09:31:13.994Z,8.74
2019-03-01T09:32:24.123Z,8.75
2019-03-01T09:33:38.893Z,8.74
2019-03-01T09:34:49.057Z,8.75
2019-03-01T09:35:59.184Z,8.71
2019-03-01T09:37:09.325Z,8.74
2019-03-01T09:38:19.096Z,8.67
2019-03-01T09:39:28.945Z,8.74
2019-03-01T09:40:41.733Z,8.68
2019-03-01T09:41:51.847Z,8.48
2019-03-01T09:43:11.854Z,8.49
2019-03-01T09:44:21.961Z,8.48
2019-03-01T09:45:40.913Z,8.42
2019-03-01T09:46:58.406Z,8.37
2019-03-01T09:48:14.073Z,8.34
2019-03-01T09:49:28.924Z,8.35
2019-03-01T09:50:40.793Z,8.39
2019-03-01T09:51:54.668Z,8.32
2019-03-01T09:53:04.844Z,8.25
2019-03-01T09:54:15.212Z,8.31
2019-03-01T09:55:25.365Z,8.28
2019-03-01T09:56:35.479Z,8.25
2019-03-01T09:57:45.617Z,8.17
2019-03-01T09:58:55.774Z,8.15
2019-03-01T10:00:05.903Z,8.17
2019-03-01T10:01:16.049Z,8.16
2019-03-01T10:02:26.198Z,8.13
2019-03-01T10:03:36.334Z,8.16
2019-03-01T10:04:46.472Z,8.16
2019-03-01T10:05:56.606Z,8.2
2019-03-01T10:07:06.725Z,8.2
2019-03-01T10:08:16.859Z,8.12
2019-03-01T10:09:27.009Z,8.2
2019-03-01T10:10:37.188Z,8.17
2019-03-01T10:11:47.312Z,8.15
2019-03-01T10:12:57.438Z,8.15
2019-03-01T10:14:07.322Z,8.15
2019-03-01T10:15:17.443Z,8.13
2019-03-01T10:16:27.573Z,7.99
2019-03-01T10:17:37.742Z,8.02
2019-03-01T10:18:47.881Z,7.92
2019-03-01T10:19:58.029Z,7.92
2019-03-01T10:21:08.169Z,8.02
2019-03-01T10:22:18.311Z,8.05
2019-03-01T10:23:28.462Z,7.97
2019-03-01T10:24:38.602Z,8.09
2019-03-01T10:25:48.730Z,8.03
2019-03-01T10:26:58.849Z,7.92
2019-03-01T10:28:10.503Z,7.94
2019-03-01T10:29:20.619Z,7.97
2019-03-01T10:30:30.748Z,7.91
2019-03-01T10:31:40.873Z,8.02
2019-03-01T10:32:51.002Z,8.02
2019-03-01T10:34:01.116Z,7.97
2019-03-01T10:35:11.262Z,7.95
2019-03-01T10:36:21.408Z,7.9
2019-03-01T10:37:31.565Z,7.9
2019-03-01T10:38:41.686Z,7.85
2019-03-01T10:40:00.025Z,7.9
2019-03-01T10:41:10.151Z,7.95
2019-03-01T10:42:20.282Z,7.97
2019-03-01T10:43:30.416Z,7.92
2019-03-01T10:44:40.594Z,7.97
2019-03-01T10:45:50.730Z,7.92
2019-03-01T10:47:02.048Z,7.98
2019-03-01T10:48:12.199Z,7.88
2019-03-01T10:49:22.327Z,7.91
2019-03-01T10:50:32.441Z,8.02
2019-03-01T10:51:42.555Z,8.03
2019-03-01T10:52:52.711Z,8.05
2019-03-01T10:54:02.853Z,8.03
2019-03-01T10:55:12.977Z,8.09
2019-03-01T10:56:23.128Z,7.95
2019-03-01T10:57:33.250Z,8.06
2019-03-01T10:58:43.372Z,8.06
2019-03-01T10:59:53.527Z,8.15
2019-03-01T11:01:03.661Z,8.12
2019-03-01T11:02:13.800Z,8.05
2019-03-01T11:03:23.955Z,7.97
2019-03-01T11:04:34.086Z,7.98
2019-03-01T11:05:44.363Z,7.97
2019-03-01T11:06:54.548Z,7.88
2019-03-01T11:08:04.726Z,7.94
2019-03-01T11:09:14.826Z,7.95
2019-03-01T11:10:24.976Z,7.9
2019-03-01T11:11:35.105Z,7.79
2019-03-01T11:12:46.697Z,7.79
2019-03-01T11:13:56.837Z,7.77
2019-03-01T11:15:06.952Z,7.8
2019-03-01T11:16:17.033Z,7.77
2019-03-01T11:17:27.143Z,7.8
2019-03-01T11:18:37.257Z,7.82
2019-03-01T11:19:47.405Z,7.7
2019-03-01T11:20:57.504Z,7.7
2019-03-01T11:22:07.611Z,7.82
2019-03-01T11:23:17.748Z,7.8
2019-03-01T11:24:27.891Z,7.79
2019-03-01T11:25:38.018Z,7.79
2019-03-01T11:26:48.151Z,7.77
2019-03-01T11:27:58.257Z,7.8
2019-03-01T11:29:08.362Z,7.88
2019-03-01T11:30:18.231Z,7.82
2019-03-01T11:31:28.367Z,7.82
2019-03-01T11:32:38.215Z,7.84
2019-03-01T11:33:48.342Z,7.91
2019-03-01T11:34:58.471Z,8.06
2019-03-01T11:36:08.665Z,8.07
2019-03-01T11:37:18.809Z,8.15
2019-03-01T11:38:28.917Z,8.2
2019-03-01T11:39:39.028Z,8.25
2019-03-01T11:40:49.166Z,8.35
2019-03-01T11:42:01.296Z,8.42
2019-03-01T11:43:11.419Z,8.43
2019-03-01T11:44:21.231Z,8.45
2019-03-01T11:45:31.376Z,8.55
2019-03-01T11:46:41.504Z,8.45
2019-03-01T11:47:51.673Z,8.39
2019-03-01T11:49:01.784Z,8.34
2019-03-01T11:50:11.554Z,8.35
2019-03-01T11:51:21.449Z,8.4
2019-03-01T11:52:33.170Z,8.39
2019-03-01T11:53:43.299Z,8.4
2019-03-01T11:54:53.414Z,8.31
2019-03-01T11:56:03.575Z,8.39
2019-03-01T11:57:13.711Z,8.46
2019-03-01T11:58:23.832Z,8.39
2019-03-01T11:59:33.690Z,8.3
2019-03-01T12:00:51.881Z,8.27
2019-03-01T12:02:02.654Z,8.21
2019-03-01T12:03:12.791Z,8.23
2019-03-01T12:04:23.392Z,8.17
2019-03-01T12:05:33.529Z,8.21
2019-03-01T12:06:43.651Z,8.17
2019-03-01T12:07:53.834Z,8.17
2019-03-01T12:09:03.955Z,8.28
2019-03-01T12:10:14.914Z,8.21
2019-03-01T12:11:25.031Z,8.25
2019-03-01T12:12:35.160Z,8.25
2019-03-01T12:13:45.282Z,8.15
2019-03-01T12:14:55.396Z,8.09
2019-03-01T12:16:05.699Z,7.97
2019-03-01T12:17:15.827Z,8.05
2019-03-01T12:18:25.977Z,8.03
2019-03-01T12:19:36.103Z,7.97
2019-03-01T12:20:46.279Z,8.02
2019-03-01T12:21:56.409Z,8.07
2019-03-01T12:23:06.524Z,8.02
2019-03-01T12:24:16.657Z,7.97
2019-03-01T12:25:26.784Z,7.88
2019-03-01T12:26:36.913Z,7.82
2019-03-01T12:27:47.085Z,7.85
2019-03-01T12:28:57.220Z,7.85
2019-03-01T12:30:07.343Z,7.79
2019-03-01T12:31:17.467Z,7.8
2019-03-01T12:32:27.590Z,7.84
2019-03-01T12:33:37.792Z,7.76
2019-03-01T12:34:47.933Z,7.79
2019-03-01T12:35:58.074Z,7.77
2019-03-01T12:37:08.224Z,7.8
2019-03-01T12:38:18.353Z,7.76
2019-03-01T12:39:28.487Z,7.8
2019-03-01T12:40:38.254Z,7.72
2019-03-01T12:41:48.413Z,7.72
2019-03-01T12:42:58.522Z,7.72
2019-03-01T12:44:08.642Z,7.62
2019-03-01T12:45:18.772Z,7.61
2019-03-01T12:46:28.905Z,7.58
2019-03-01T12:47:39.040Z,7.54
2019-03-01T12:48:49.151Z,7.47
2019-03-01T12:50:00.081Z,7.51
2019-03-01T12:51:10.458Z,7.43
2019-03-01T12:52:20.582Z,7.34
2019-03-01T12:53:30.743Z,7.31
2019-03-01T12:54:40.872Z,7.29
2019-03-01T12:55:50.982Z,7.26
2019-03-01T12:57:01.119Z,7.21
2019-03-01T12:58:19.148Z,7.22
2019-03-01T12:59:29.628Z,7.26
2019-03-01T13:00:39.750Z,7.28
2019-03-01T13:01:49.865Z,7.24
2019-03-01T13:03:00.010Z,7.05
2019-03-01T13:04:20.722Z,7.13
2019-03-01T13:05:34.932Z,7.13
2019-03-01T13:06:45.057Z,7.2
2019-03-01T13:07:56.935Z,7.18
2019-03-01T13:09:07.073Z,7.05
2019-03-01T13:10:17.306Z,7.1
2019-03-01T13:11:27.422Z,7.11
2019-03-01T13:12:37.545Z,7.14
2019-03-01T13:13:47.682Z,7.14
2019-03-01T13:14:57.813Z,7.17
2019-03-01T13:16:08.085Z,7.15
2019-03-01T13:17:18.231Z,7.17
2019-03-01T13:18:28.350Z,7.13
2019-03-01T13:19:38.509Z,7.18
2019-03-01T13:20:48.643Z,7.2
2019-03-01T13:21:58.776Z,7.17
2019-03-01T13:23:10.649Z,7.2
2019-03-01T13:24:21.703Z,7.11
2019-03-01T13:25:35.018Z,7.21
2019-03-01T13:26:45.791Z,7.18
2019-03-01T13:27:58.329Z,7.22
2019-03-01T13:29:08.478Z,7.21
2019-03-01T13:30:18.610Z,7.2
2019-03-01T13:31:28.751Z,7.17
2019-03-01T13:32:38.894Z,7.15
2019-03-01T13:33:48.767Z,7.22
2019-03-01T13:34:58.653Z,7.2
2019-03-01T13:36:09.548Z,7.24
2019-03-01T13:37:25.145Z,7.26
2019-03-01T13:38:38.617Z,7.2
2019-03-01T13:39:51.136Z,7.21
2019-03-01T13:41:05.319Z,7.17
2019-03-01T13:42:18.354Z,7.17
2019-03-01T13:43:30.517Z,7.15
2019-03-01T13:44:44.629Z,7.17
2019-03-01T13:46:00.195Z,7.18
2019-03-01T13:47:14.209Z,7.15
2019-03-01T13:48:24.779Z,7.1
2019-03-01T13:49:35.349Z,7.13
2019-03-01T13:50:47.199Z,7.14
2019-03-01T13:51:58.708Z,7.08
2019-03-01T13:53:09.066Z,7.13
2019-03-01T13:54:21.242Z,6.97
2019-03-01T13:55:32.599Z,7.02
2019-03-01T13:56:42.736Z,6.99
2019-03-01T13:57:55.859Z,7.06
2019-03-01T13:59:08.677Z,7.06
2019-03-01T14:00:18.830Z,6.97
2019-03-01T14:01:32.041Z,6.93
2019-03-01T14:02:46.825Z,6.9
2019-03-01T14:03:59.635Z,6.89
2019-03-01T14:05:19.630Z,6.85
2019-03-01T14:06:29.740Z,6.84
2019-03-01T14:07:39.849Z,6.69
2019-03-01T14:08:49.651Z,6.66
2019-03-01T14:10:00.696Z,6.67
2019-03-01T14:11:20.417Z,6.64
2019-03-01T14:12:34.086Z,6.59
2019-03-01T14:13:47.604Z,6.63
2019-03-01T14:15:06.164Z,6.62
2019-03-01T14:16:22.385Z,6.62
2019-03-01T14:17:32.506Z,6.59
2019-03-01T14:18:42.828Z,6.62
2019-03-01T14:19:52.942Z,6.54
2019-03-01T14:21:04.075Z,6.49
2019-03-01T14:22:18.084Z,6.44
2019-03-01T14:23:29.930Z,6.56
2019-03-01T14:24:40.096Z,6.48
2019-03-01T14:25:50.213Z,6.54
2019-03-01T14:27:03.837Z,6.48
2019-03-01T14:28:13.975Z,6.42
2019-03-01T14:29:24.209Z,6.44
2019-03-01T14:30:37.996Z,6.26
2019-03-01T14:31:48.712Z,6.3
2019-03-01T14:33:02.365Z,6.28
2019-03-01T14:34:14.285Z,6.2
2019-03-01T14:35:29.424Z,6.16
2019-03-01T14:36:43.096Z,6.14
2019-03-01T14:37:59.170Z,6.06
2019-03-01T14:39:12.547Z,6.17
2019-03-01T14:40:25.795Z,6.16
2019-03-01T14:41:39.186Z,6.16
2019-03-01T14:42:52.440Z,6.19
2019-03-01T14:44:04.639Z,6.2
2019-03-01T14:45:15.776Z,6.26
2019-03-01T14:46:27.024Z,6.31
2019-03-01T14:47:37.716Z,6.27
2019-03-01T14:48:51.002Z,6.31
2019-03-01T14:50:03.406Z,6.23
2019-03-01T14:51:16.453Z,6.24
2019-03-01T14:52:27.116Z,6.12
2019-03-01T14:53:40.566Z,6.16
2019-03-01T14:54:50.765Z,6.09
2019-03-01T14:56:04.506Z,6.11
2019-03-01T14:57:17.277Z,6.19
2019-03-01T14:58:28.417Z,6.16
2019-03-01T14:59:43.023Z,6.19
2019-03-01T15:00:55.947Z,6.17
2019-03-01T15:02:08.143Z,6.17
2019-03-01T15:03:22.433Z,6.06
2019-03-01T15:04:34.495Z,6.09
2019-03-01T15:05:47.674Z,6.17
2019-03-01T15:07:00.035Z,6.17
2019-03-01T15:08:12.354Z,6.17
2019-03-01T15:09:25.613Z,6.16
2019-03-01T15:10:38.053Z,6.17
2019-03-01T15:11:51.397Z,6.16
2019-03-01T15:13:03.531Z,6.24
2019-03-01T15:14:18.476Z,6.26
2019-03-01T15:15:34.716Z,6.12
2019-03-01T15:16:48.340Z,6.12
2019-03-01T15:17:59.522Z,6.12
2019-03-01T15:19:13.093Z,6.16
2019-03-01T15:20:28.915Z,6.19
2019-03-01T15:21:42.042Z,6.19
2019-03-01T15:22:53.745Z,6.2
2019-03-01T15:24:06.015Z,6.17
2019-03-01T15:25:17.686Z,6.26
2019-03-01T15:26:31.054Z,6.16
2019-03-01T15:27:44.802Z,6.31
2019-03-01T15:29:01.251Z,6.21
2019-03-01T15:30:14.835Z,6.19
2019-03-01T15:31:25.236Z,6.12
2019-03-01T15:32:37.791Z,6.12
2019-03-01T15:33:51.649Z,6.16
2019-03-01T15:35:07.776Z,6.17
2019-03-01T15:36:21.209Z,6.21
2019-03-01T15:37:34.913Z,6.14
2019-03-01T15:38:46.161Z,6.06
2019-03-01T15:39:59.100Z,6.08
2019-03-01T15:41:12.069Z,6.08
2019-03-01T15:42:25.284Z,6.01
2019-03-01T15:43:35.962Z,5.98
2019-03-01T15:44:46.130Z,5.99
2019-03-01T15:45:56.272Z,5.99
2019-03-01T15:47:06.429Z,6.01